Terminal Aerodrome Forecast
Issued by NWS

Current Version | Previous Version | Graphics & Text | Print | Product List | Glossary On
Versions: 1 2 3 4 5 6 7 8 9 10 11 12 13 14 15 16 17 18 19 20 21 22 23 24 25 26
000
FTUS41 KRNK 201037 AAA
TAFLWB
TAF AMD
KLWB 201037Z 2011/2106 27005KT P6SM BKN060
     FM201500 28014G22KT P6SM BKN035
     FM202200 27010G16KT P6SM SCT035=

USA.gov is the U.S. government's official web portal to all federal, state and local government web resources and services.